Time Latitude Longitude Accuracy (66% radius in meters) Altitude (meters) Speed (km/hour) Bearing (degrees) Battery (%) GPS flag
10:22:17 60.370863 29.556323 32 77 0 186.05815124512 67 1 delete
11:22:06 60.370869 29.556378 32 76 0 186.05815124512 67 0 delete
11:21:54 60.370869 29.556378 32 76 0 186.05815124512 67 0 delete
11:21:42 60.370869 29.556378 32 76 0 186.05815124512 67 0 delete
10:21:28 60.370874 29.556417 16 79 0 186.05815124512 67 1 delete
10:21:17 60.370874 29.556417 24 75 0 186.05815124512 67 1 delete
10:21:07 60.370869 29.556378 32 76 0 186.05815124512 67 1 delete
11:21:07 60.372008 29.557421 24 58 0 38.042266845703 67 0 delete
11:20:54 60.372008 29.557421 24 58 0 38.042266845703 67 0 delete
11:20:42 60.372008 29.557421 24 58 0 38.042266845703 67 0 delete
11:20:29 60.372008 29.557421 24 58 0 38.042266845703 67 0 delete
11:20:17 60.372008 29.557421 24 58 0 38.042266845703 67 0 delete
11:20:04 60.372008 29.557421 24 58 0 38.042266845703 67 0 delete
11:19:52 60.372008 29.557421 24 58 0 38.042266845703 67 0 delete
11:19:39 60.372008 29.557421 24 58 0 38.042266845703 67 0 delete
11:19:29 60.372008 29.557421 24 58 0 38.042266845703 67 0 delete
11:19:17 60.372008 29.557421 24 58 0 38.042266845703 67 0 delete
11:19:06 60.372008 29.557421 24 58 0 38.042266845703 67 0 delete
11:18:53 60.372008 29.557421 24 58 0 38.042266845703 67 0 delete
11:18:41 60.372008 29.557421 24 58 0 38.042266845703 67 0 delete
11:18:29 60.372008 29.557421 24 58 0 38.042266845703 67 0 delete
11:18:17 60.372008 29.557421 24 58 0 38.042266845703 67 0 delete
11:18:04 60.372008 29.557421 24 58 0 38.042266845703 67 0 delete
11:17:51 60.372008 29.557421 24 58 0 38.042266845703 67 0 delete
11:17:38 60.372008 29.557421 24 58 0 38.042266845703 67 0 delete
11:17:25 60.372008 29.557421 24 58 0 38.042266845703 67 0 delete
11:17:13 60.372008 29.557421 24 58 0 38.042266845703 67 0 delete
10:16:56 60.372016 29.557433 24 58 0 38.042266845703 67 1 delete
10:16:55 60.372008 29.557421 24 58 0 38.042266845703 67 1 delete
10:16:51 60.371974 29.557338 24 57 1.0162161588669 41.407291412354 67 1 delete
10:16:48 60.371944 29.557251 24 59 0 346.99661254883 67 1 delete
10:16:46 60.371939 29.557213 24 62 0 346.99661254883 67 1 delete
10:16:33 60.371945 29.557154 24 77 0 346.99661254883 67 1 delete
10:16:20 60.371945 29.557154 32 95 0 346.99661254883 67 1 delete
10:16:04 60.371922 29.557167 32 79 1.4234858751297 4.8366756439209 67 1 delete
10:16:00 60.371874 29.557162 24 79 1.4798920154572 8.7595014572144 67 1 delete
10:15:57 60.371825 29.557160 32 76 1.4739758968353 19.861877441406 67 1 delete
10:15:56 60.371809 29.557154 24 71 1.4695484638214 22.854169845581 67 1 delete
10:15:53 60.371772 29.557124 24 77 1.4803423881531 29.873250961304 67 1 delete
10:15:50 60.371729 29.557068 24 74 1.4303624629974 26.930809020996 67 1 delete
10:15:47 60.371678 29.557019 24 72 1.3290898799896 19.284250259399 67 1 delete
10:15:44 60.371627 29.556990 24 72 1.2246626615524 18.29633140564 67 1 delete
10:15:43 60.371611 29.556980 24 71 1.1914759874344 17.948526382446 67 1 delete
10:15:41 60.371578 29.556959 24 69 1.1157112121582 17.335683822632 67 1 delete
10:15:38 60.371528 29.556929 24 63 0.97784829139709 18.631071090698 67 1 delete
10:15:35 60.371481 29.556897 24 64 0.82068467140198 21.068870544434 67 1 delete
10:15:32 60.371437 29.556863 24 67 0 22.11254119873 67 1 delete
10:15:30 60.371437 29.556863 24 69 0.62781143188477 22.11254119873 67 1 delete
10:15:27 60.371393 29.556826 24 70 0.42986610531807 23.241174697876 67 1 delete
10:15:24 60.371347 29.556782 24 72 0 12.458559989929 67 1 delete